createdAt,value
2023-02-13T00:00:53.560Z,99.90
2023-02-13T00:03:21.117Z,99.90
2023-02-13T00:05:48.796Z,99.90
2023-02-13T00:08:16.646Z,99.90
2023-02-13T00:10:44.170Z,99.90
2023-02-13T00:13:12.058Z,99.90
2023-02-13T00:15:39.783Z,99.90
2023-02-13T00:18:07.293Z,99.90
2023-02-13T00:20:35.029Z,99.90
2023-02-13T00:23:02.884Z,99.90
2023-02-13T00:25:30.697Z,99.90
2023-02-13T00:27:58.253Z,99.90
2023-02-13T00:30:25.755Z,99.90
2023-02-13T00:32:53.379Z,99.90
2023-02-13T00:35:26.121Z,99.90
2023-02-13T00:37:53.618Z,99.90
2023-02-13T00:40:25.466Z,99.90
2023-02-13T00:42:52.940Z,99.90
2023-02-13T00:45:20.542Z,99.90
2023-02-13T00:47:48.031Z,99.90
2023-02-13T00:50:15.879Z,99.90
2023-02-13T00:52:43.370Z,99.90
2023-02-13T00:55:10.831Z,99.90
2023-02-13T00:57:38.479Z,99.90
2023-02-13T01:00:06.906Z,99.90
2023-02-13T01:02:36.173Z,99.90
2023-02-13T01:05:03.996Z,99.90
2023-02-13T01:07:31.407Z,99.90
2023-02-13T01:09:58.941Z,99.90
2023-02-13T01:12:27.720Z,99.90
2023-02-13T01:14:56.087Z,99.90
2023-02-13T01:17:23.771Z,99.90
2023-02-13T01:19:51.324Z,99.90
2023-02-13T01:22:19.702Z,99.90
2023-02-13T01:24:50.267Z,99.90
2023-02-13T01:27:18.142Z,99.90
2023-02-13T01:29:46.025Z,99.90
2023-02-13T01:32:14.051Z,99.90
2023-02-13T01:34:41.925Z,99.90
2023-02-13T01:37:12.884Z,99.90
2023-02-13T01:39:40.580Z,99.90
2023-02-13T01:42:26.031Z,99.90
2023-02-13T01:44:57.291Z,99.90
2023-02-13T01:47:31.821Z,99.90
2023-02-13T01:50:19.456Z,99.90
2023-02-13T01:52:55.677Z,99.90
2023-02-13T01:55:27.015Z,99.90
2023-02-13T01:58:08.195Z,99.90
2023-02-13T02:00:37.694Z,99.90
2023-02-13T02:03:16.908Z,99.90
2023-02-13T02:05:45.839Z,99.90
2023-02-13T02:08:14.916Z,99.90
2023-02-13T02:10:42.857Z,99.90
2023-02-13T02:13:13.900Z,99.90
2023-02-13T02:15:41.925Z,99.90
2023-02-13T02:18:22.050Z,99.90
2023-02-13T02:21:08.524Z,99.90
2023-02-13T02:24:27.089Z,99.90
2023-02-13T02:26:57.308Z,99.90
2023-02-13T02:29:59.487Z,99.90
2023-02-13T02:33:03.159Z,99.90
2023-02-13T02:35:43.923Z,99.90
2023-02-13T02:38:19.570Z,99.90
2023-02-13T02:41:41.782Z,99.90
2023-02-13T02:44:35.020Z,99.90
2023-02-13T02:47:35.143Z,99.90
2023-02-13T02:50:14.669Z,99.90
2023-02-13T02:52:57.569Z,99.90
2023-02-13T02:55:37.769Z,99.90
2023-02-13T02:58:40.068Z,99.90
2023-02-13T03:01:31.354Z,99.90
2023-02-13T03:04:19.267Z,99.90
2023-02-13T03:06:53.389Z,99.90
2023-02-13T03:09:45.051Z,99.90
2023-02-13T03:12:36.254Z,99.90
2023-02-13T03:15:03.854Z,99.90
2023-02-13T03:17:50.816Z,99.90
2023-02-13T03:20:44.851Z,99.90
2023-02-13T03:23:17.372Z,99.90
2023-02-13T03:26:05.784Z,99.90
2023-02-13T03:29:05.600Z,99.90
2023-02-13T03:32:01.594Z,99.90
2023-02-13T03:34:56.864Z,99.90
2023-02-13T03:37:50.440Z,99.90
2023-02-13T03:40:25.773Z,99.90
2023-02-13T03:43:12.576Z,99.90
2023-02-13T03:45:55.470Z,99.90
2023-02-13T03:48:58.252Z,99.90
2023-02-13T03:51:32.374Z,99.90
2023-02-13T03:54:05.409Z,99.90
2023-02-13T03:56:53.732Z,99.90
2023-02-13T03:59:30.568Z,99.90
2023-02-13T04:02:19.507Z,99.90
2023-02-13T04:05:02.054Z,99.90
2023-02-13T04:07:30.712Z,99.90
2023-02-13T04:10:05.865Z,99.90
2023-02-13T04:12:46.559Z,99.90
2023-02-13T04:15:19.664Z,99.90
2023-02-13T04:18:05.036Z,99.90
2023-02-13T04:20:33.492Z,99.90
2023-02-13T04:23:09.613Z,99.90
2023-02-13T04:25:39.218Z,99.90
2023-02-13T04:28:07.177Z,99.90
2023-02-13T04:30:34.668Z,99.90
2023-02-13T04:33:02.079Z,99.90
2023-02-13T04:35:29.449Z,99.90
2023-02-13T04:37:56.949Z,99.90
2023-02-13T04:40:24.444Z,99.90
2023-02-13T04:42:52.053Z,99.90
2023-02-13T04:45:19.509Z,99.90
2023-02-13T04:47:54.866Z,99.90
2023-02-13T04:50:24.229Z,99.90
2023-02-13T04:52:56.263Z,99.90
2023-02-13T04:55:25.273Z,99.90
2023-02-13T04:57:54.119Z,99.90
2023-02-13T05:00:25.574Z,99.90
2023-02-13T05:02:53.819Z,99.90
2023-02-13T05:05:21.429Z,99.90
2023-02-13T05:07:48.950Z,99.90
2023-02-13T05:10:16.587Z,99.90
2023-02-13T05:12:44.078Z,99.90
2023-02-13T05:15:11.889Z,99.90
2023-02-13T05:17:39.346Z,99.90
2023-02-13T05:20:07.711Z,99.90
2023-02-13T05:22:53.981Z,99.90
2023-02-13T05:25:21.829Z,99.90
2023-02-13T05:27:49.481Z,99.90
2023-02-13T05:30:17.073Z,99.90
2023-02-13T05:32:44.747Z,99.90
2023-02-13T05:35:12.545Z,99.90
2023-02-13T05:37:40.297Z,99.90
2023-02-13T05:40:08.904Z,99.90
2023-02-13T05:42:36.487Z,99.90
2023-02-13T05:45:04.546Z,99.90
2023-02-13T05:47:32.157Z,99.90
2023-02-13T05:49:59.800Z,99.90
2023-02-13T05:52:27.809Z,99.90
2023-02-13T05:54:55.476Z,99.90
2023-02-13T05:57:22.966Z,99.90
2023-02-13T05:59:50.689Z,99.90
2023-02-13T06:02:18.243Z,99.90
2023-02-13T06:04:45.740Z,99.90
2023-02-13T06:07:13.241Z,99.90
2023-02-13T06:09:41.065Z,99.90
2023-02-13T06:12:08.655Z,99.90
2023-02-13T06:14:36.181Z,99.90
2023-02-13T06:17:03.794Z,99.90
2023-02-13T06:19:31.376Z,99.90
2023-02-13T06:21:58.935Z,99.90
2023-02-13T06:24:26.532Z,99.90
2023-02-13T06:26:54.332Z,99.90
2023-02-13T06:29:22.002Z,99.90
2023-02-13T06:31:49.845Z,99.90
2023-02-13T06:34:17.476Z,99.90
2023-02-13T06:36:45.021Z,99.90
2023-02-13T06:39:12.952Z,99.90
2023-02-13T06:41:40.752Z,99.90
2023-02-13T06:44:08.366Z,99.90
2023-02-13T06:46:36.072Z,99.90
2023-02-13T06:49:03.692Z,99.90
2023-02-13T06:51:31.337Z,99.90
2023-02-13T06:53:58.984Z,99.90
2023-02-13T06:56:26.562Z,99.90
2023-02-13T06:58:54.257Z,99.90
2023-02-13T07:01:22.322Z,99.90
2023-02-13T07:03:49.953Z,99.90
2023-02-13T07:06:19.094Z,99.90
2023-02-13T07:08:48.251Z,99.90
2023-02-13T07:11:24.206Z,99.90
2023-02-13T07:13:51.904Z,99.90
2023-02-13T07:16:19.615Z,99.90
2023-02-13T07:18:47.170Z,99.90
2023-02-13T07:21:14.882Z,99.90
2023-02-13T07:23:42.590Z,99.90
2023-02-13T07:26:11.251Z,99.90
2023-02-13T07:28:38.933Z,99.90
2023-02-13T07:31:06.975Z,99.90
2023-02-13T07:33:35.558Z,99.90
2023-02-13T07:36:04.474Z,99.90
2023-02-13T07:38:33.093Z,99.90
2023-02-13T07:41:02.744Z,99.90
2023-02-13T07:43:30.790Z,99.90
2023-02-13T07:45:59.871Z,99.90
2023-02-13T07:48:28.417Z,99.90
2023-02-13T07:51:01.056Z,99.90
2023-02-13T07:53:29.050Z,99.90
2023-02-13T07:55:56.854Z,99.90
2023-02-13T07:58:26.757Z,99.90
2023-02-13T08:00:54.142Z,99.90
2023-02-13T08:03:22.945Z,99.90
2023-02-13T08:05:50.583Z,99.90
2023-02-13T08:08:18.077Z,99.90
2023-02-13T08:11:04.563Z,99.90
2023-02-13T08:13:32.716Z,99.90
2023-02-13T08:16:00.287Z,99.90
2023-02-13T08:18:28.209Z,99.90
2023-02-13T08:20:55.574Z,99.90
2023-02-13T08:23:23.126Z,99.90
2023-02-13T08:25:50.685Z,99.90
2023-02-13T08:28:18.268Z,99.90
2023-02-13T08:30:45.826Z,99.90
2023-02-13T08:33:13.366Z,99.90
2023-02-13T08:35:40.739Z,99.90
2023-02-13T08:38:09.308Z,99.90
2023-02-13T08:40:36.806Z,99.90
2023-02-13T08:43:05.960Z,99.90
2023-02-13T08:45:33.978Z,99.90
2023-02-13T08:48:04.008Z,99.90
2023-02-13T08:50:31.854Z,99.90
2023-02-13T08:52:59.928Z,99.90
2023-02-13T08:55:28.681Z,99.90
2023-02-13T08:57:56.268Z,99.90
2023-02-13T09:00:23.734Z,99.90
2023-02-13T09:02:51.304Z,99.90
2023-02-13T09:05:18.878Z,99.90
2023-02-13T09:07:46.505Z,99.90
2023-02-13T09:10:14.101Z,99.90
2023-02-13T09:12:41.560Z,99.90
2023-02-13T09:15:09.464Z,99.90
2023-02-13T09:17:36.844Z,99.90
2023-02-13T09:20:04.940Z,99.90
2023-02-13T09:22:32.426Z,99.90
2023-02-13T09:25:04.051Z,99.90
2023-02-13T09:27:32.114Z,99.90
2023-02-13T09:30:00.238Z,99.90
2023-02-13T09:32:28.402Z,99.90
2023-02-13T09:34:55.991Z,99.90
2023-02-13T09:37:23.507Z,99.90
2023-02-13T09:39:50.985Z,99.90
2023-02-13T09:42:25.774Z,99.90
2023-02-13T09:44:58.290Z,99.90
2023-02-13T09:47:37.255Z,99.90
2023-02-13T09:50:07.409Z,99.90
2023-02-13T09:52:37.992Z,99.90
2023-02-13T09:55:21.775Z,99.90
2023-02-13T09:58:16.405Z,99.90
2023-02-13T10:00:50.634Z,99.90
2023-02-13T10:03:33.879Z,99.90
2023-02-13T10:06:16.746Z,99.90
2023-02-13T10:09:11.435Z,99.90
2023-02-13T10:12:01.868Z,99.90
2023-02-13T10:14:45.298Z,99.90
2023-02-13T10:17:23.503Z,99.90
2023-02-13T10:19:55.574Z,99.90
2023-02-13T10:22:33.109Z,99.90
2023-02-13T10:25:11.255Z,99.90
2023-02-13T10:27:44.187Z,99.90
2023-02-13T10:30:22.215Z,99.90
2023-02-13T10:33:20.897Z,99.90
2023-02-13T10:36:10.565Z,99.90
2023-02-13T10:38:46.261Z,99.90
2023-02-13T10:41:19.715Z,99.90
2023-02-13T10:43:47.347Z,99.90
2023-02-13T10:46:27.023Z,99.90
2023-02-13T10:49:12.824Z,99.90
2023-02-13T10:51:44.493Z,99.90
2023-02-13T10:54:33.041Z,99.90
2023-02-13T10:57:23.526Z,99.90
2023-02-13T10:59:56.509Z,99.90
2023-02-13T11:02:34.821Z,99.90
2023-02-13T11:05:18.728Z,99.90
2023-02-13T11:07:47.637Z,99.90
2023-02-13T11:10:21.730Z,99.90
2023-02-13T11:12:50.027Z,99.90
2023-02-13T11:15:24.149Z,99.90
2023-02-13T11:17:57.643Z,99.90
2023-02-13T11:20:25.266Z,99.90
2023-02-13T11:22:52.882Z,99.90
2023-02-13T11:25:28.830Z,99.90
2023-02-13T11:28:10.378Z,99.70
2023-02-13T11:30:38.815Z,99.30
2023-02-13T11:33:29.250Z,99.40
2023-02-13T11:36:09.510Z,98.90
2023-02-13T11:38:37.231Z,98.80
2023-02-13T11:41:12.307Z,98.60
2023-02-13T11:43:52.441Z,98.20
2023-02-13T11:46:21.129Z,98.00
2023-02-13T11:49:06.527Z,98.20
2023-02-13T11:51:43.214Z,97.40
2023-02-13T11:54:37.297Z,97.30
2023-02-13T11:57:23.577Z,97.00
2023-02-13T11:59:53.379Z,97.00
2023-02-13T12:02:25.589Z,97.10
2023-02-13T12:05:13.455Z,97.10
2023-02-13T12:07:41.955Z,97.40
2023-02-13T12:10:17.297Z,96.80
2023-02-13T12:12:47.808Z,95.90
2023-02-13T12:15:21.650Z,95.80
2023-02-13T12:18:04.118Z,95.40
2023-02-13T12:20:43.831Z,95.00
2023-02-13T12:23:42.224Z,94.60
2023-02-13T12:26:27.960Z,93.90
2023-02-13T12:29:04.592Z,93.40
2023-02-13T12:31:57.222Z,93.40
2023-02-13T12:34:46.139Z,92.40
2023-02-13T12:37:29.146Z,92.00
2023-02-13T12:40:24.194Z,91.70
2023-02-13T12:43:13.778Z,91.70
2023-02-13T12:46:12.098Z,91.70
2023-02-13T12:48:54.860Z,90.80
2023-02-13T12:51:45.264Z,91.00
2023-02-13T12:54:39.092Z,90.70
2023-02-13T12:57:21.713Z,90.40
2023-02-13T13:00:07.875Z,90.30
2023-02-13T13:02:59.724Z,89.60
2023-02-13T13:05:58.741Z,89.30
2023-02-13T13:08:43.636Z,88.70
2023-02-13T13:11:29.877Z,87.50
2023-02-13T13:14:32.074Z,86.70
2023-02-13T13:17:20.546Z,85.20
2023-02-13T13:20:15.996Z,85.00
2023-02-13T13:23:09.786Z,83.30
2023-02-13T13:25:44.298Z,82.00
2023-02-13T13:28:28.932Z,82.00
2023-02-13T13:30:58.515Z,81.30
2023-02-13T13:33:28.212Z,81.10
2023-02-13T13:36:27.727Z,79.80
2023-02-13T13:39:04.180Z,78.40
2023-02-13T13:41:48.095Z,79.00
2023-02-13T13:44:33.633Z,78.40
2023-02-13T13:47:04.414Z,77.80
2023-02-13T13:49:40.936Z,77.20
2023-02-13T13:52:28.162Z,78.90
2023-02-13T13:54:57.887Z,75.30
2023-02-13T13:57:27.179Z,74.90
2023-02-13T13:59:57.364Z,74.10
2023-02-13T14:02:24.839Z,73.90
2023-02-13T14:05:02.113Z,75.00
2023-02-13T14:07:36.187Z,73.50
2023-02-13T14:10:05.528Z,72.40
2023-02-13T14:12:33.286Z,72.40
2023-02-13T14:15:01.136Z,71.50
2023-02-13T14:17:52.002Z,71.00
2023-02-13T14:20:34.374Z,70.70
2023-02-13T14:23:30.763Z,72.70
2023-02-13T14:26:16.726Z,70.70
2023-02-13T14:28:58.466Z,70.00
2023-02-13T14:31:29.940Z,69.30
2023-02-13T14:33:59.619Z,68.60
2023-02-13T14:36:33.243Z,68.40
2023-02-13T14:39:04.858Z,67.90
2023-02-13T14:41:51.183Z,67.60
2023-02-13T14:44:42.241Z,66.90
2023-02-13T14:47:31.724Z,67.30
2023-02-13T14:50:02.313Z,66.90
2023-02-13T14:52:35.303Z,67.20
2023-02-13T14:55:05.000Z,67.30
2023-02-13T14:57:43.491Z,67.60
2023-02-13T15:00:31.766Z,66.60
2023-02-13T15:03:05.475Z,66.70
2023-02-13T15:05:35.099Z,66.80
2023-02-13T15:08:19.480Z,66.50
2023-02-13T15:10:49.963Z,65.80
2023-02-13T15:13:33.341Z,66.20
2023-02-13T15:16:05.668Z,66.90
2023-02-13T15:18:48.031Z,67.80
2023-02-13T15:21:19.638Z,66.70
2023-02-13T15:23:53.524Z,67.00
2023-02-13T15:26:23.922Z,66.50
2023-02-13T15:29:04.579Z,66.50
2023-02-13T15:31:34.809Z,65.90
2023-02-13T15:34:02.540Z,66.20
2023-02-13T15:36:41.349Z,66.40
2023-02-13T15:39:18.849Z,66.10
2023-02-13T15:41:52.923Z,66.80
2023-02-13T15:44:32.835Z,67.20
2023-02-13T15:47:15.482Z,67.80
2023-02-13T15:49:46.149Z,68.40
2023-02-13T15:52:31.317Z,69.00
2023-02-13T15:54:59.259Z,69.30
2023-02-13T15:57:28.229Z,69.50
2023-02-13T15:59:58.683Z,69.80
2023-02-13T16:02:35.416Z,70.00
2023-02-13T16:05:03.325Z,70.70
2023-02-13T16:07:31.016Z,71.00
2023-02-13T16:10:28.459Z,71.20
2023-02-13T16:12:58.594Z,71.60
2023-02-13T16:15:30.089Z,72.10
2023-02-13T16:17:57.859Z,72.80
2023-02-13T16:20:28.835Z,73.50
2023-02-13T16:23:13.691Z,74.10
2023-02-13T16:25:44.795Z,74.80
2023-02-13T16:28:20.970Z,75.30
2023-02-13T16:30:59.819Z,75.90
2023-02-13T16:33:30.784Z,76.70
2023-02-13T16:36:00.848Z,77.20
2023-02-13T16:38:37.144Z,77.80
2023-02-13T16:41:17.778Z,78.30
2023-02-13T16:43:49.062Z,79.10
2023-02-13T16:46:18.888Z,79.60
2023-02-13T16:49:05.655Z,80.10
2023-02-13T16:51:51.729Z,81.10
2023-02-13T16:54:54.423Z,81.50
2023-02-13T16:57:30.870Z,82.20
2023-02-13T17:00:09.435Z,82.60
2023-02-13T17:02:38.603Z,82.90
2023-02-13T17:05:09.255Z,83.30
2023-02-13T17:07:38.352Z,83.90
2023-02-13T17:10:27.973Z,84.10
2023-02-13T17:12:59.545Z,84.70
2023-02-13T17:15:31.493Z,85.00
2023-02-13T17:17:59.809Z,86.20
2023-02-13T17:20:30.749Z,85.60
2023-02-13T17:22:59.323Z,86.00
2023-02-13T17:25:35.341Z,85.50
2023-02-13T17:28:12.902Z,86.30
2023-02-13T17:30:41.770Z,86.90
2023-02-13T17:33:25.396Z,87.00
2023-02-13T17:35:53.756Z,87.60
2023-02-13T17:38:21.816Z,87.70
2023-02-13T17:40:50.374Z,89.10
2023-02-13T17:43:19.896Z,88.70
2023-02-13T17:45:49.734Z,89.10
2023-02-13T17:48:17.912Z,89.50
2023-02-13T17:50:47.787Z,89.70
2023-02-13T17:53:31.956Z,90.00
2023-02-13T17:55:59.587Z,90.30
2023-02-13T17:58:27.138Z,90.20
2023-02-13T18:00:54.641Z,90.40
2023-02-13T18:03:22.452Z,90.60
2023-02-13T18:05:50.291Z,90.80
2023-02-13T18:08:17.828Z,90.90
2023-02-13T18:10:45.567Z,91.10
2023-02-13T18:13:13.191Z,91.30
2023-02-13T18:15:43.249Z,91.50
2023-02-13T18:18:12.459Z,91.70
2023-02-13T18:20:40.226Z,91.80
2023-02-13T18:23:08.537Z,92.00
2023-02-13T18:25:36.452Z,92.10
2023-02-13T18:28:04.370Z,92.30
2023-02-13T18:30:32.012Z,92.50
2023-02-13T18:33:00.141Z,92.60
2023-02-13T18:35:27.986Z,92.70
2023-02-13T18:37:55.528Z,92.90
2023-02-13T18:40:23.428Z,93.00
2023-02-13T18:42:52.426Z,93.10
2023-02-13T18:45:19.995Z,93.20
2023-02-13T18:47:47.474Z,93.20
2023-02-13T18:50:15.098Z,93.30
2023-02-13T18:52:42.746Z,93.40
2023-02-13T18:55:10.507Z,93.50
2023-02-13T18:57:43.245Z,93.70
2023-02-13T19:00:11.409Z,93.80
2023-02-13T19:02:38.931Z,93.90
2023-02-13T19:05:06.578Z,94.00
2023-02-13T19:07:34.022Z,94.10
2023-02-13T19:10:01.504Z,94.20
2023-02-13T19:12:29.212Z,94.30
2023-02-13T19:14:56.685Z,94.40
2023-02-13T19:17:24.188Z,94.50
2023-02-13T19:19:51.799Z,94.60
2023-02-13T19:22:19.395Z,94.70
2023-02-13T19:24:47.171Z,94.80
2023-02-13T19:27:14.622Z,94.90
2023-02-13T19:29:42.091Z,95.00
2023-02-13T19:32:09.887Z,95.10
2023-02-13T19:34:37.474Z,95.20
2023-02-13T19:37:05.047Z,95.30
2023-02-13T19:39:32.440Z,95.40
2023-02-13T19:41:59.818Z,95.40
2023-02-13T19:44:27.300Z,95.50
2023-02-13T19:46:54.944Z,95.60
2023-02-13T19:49:22.647Z,95.60
2023-02-13T19:51:50.310Z,95.70
2023-02-13T19:54:17.915Z,95.70
2023-02-13T19:56:45.492Z,95.80
2023-02-13T19:59:13.544Z,95.80
2023-02-13T20:01:42.811Z,96.20
2023-02-13T20:04:11.472Z,95.90
2023-02-13T20:06:39.961Z,96.00
2023-02-13T20:09:11.950Z,96.10
2023-02-13T20:11:41.465Z,96.30
2023-02-13T20:14:14.774Z,96.40
2023-02-13T20:16:45.487Z,96.50
2023-02-13T20:19:13.972Z,96.60
2023-02-13T20:21:42.812Z,96.70
2023-02-13T20:24:12.170Z,96.80
2023-02-13T20:26:40.453Z,96.90
2023-02-13T20:29:09.164Z,96.90
2023-02-13T20:31:39.436Z,97.00
2023-02-13T20:34:08.027Z,97.10
2023-02-13T20:36:35.450Z,97.20
2023-02-13T20:39:06.811Z,97.40
2023-02-13T20:41:36.742Z,97.60
2023-02-13T20:44:07.153Z,97.70
2023-02-13T20:46:37.090Z,97.80
2023-02-13T20:49:05.145Z,97.90
2023-02-13T20:51:33.033Z,98.00
2023-02-13T20:54:00.607Z,98.20
2023-02-13T20:56:28.682Z,98.30
2023-02-13T20:58:58.381Z,98.40
2023-02-13T21:01:32.509Z,98.50
2023-02-13T21:04:00.779Z,98.60
2023-02-13T21:06:34.821Z,98.70
2023-02-13T21:09:04.104Z,98.80
2023-02-13T21:11:34.355Z,98.80
2023-02-13T21:14:03.034Z,98.90
2023-02-13T21:16:34.425Z,99.00
2023-02-13T21:19:05.813Z,99.10
2023-02-13T21:21:34.982Z,99.20
2023-02-13T21:24:07.941Z,99.30
2023-02-13T21:26:36.105Z,99.50
2023-02-13T21:29:04.544Z,99.50
2023-02-13T21:31:35.509Z,99.70
2023-02-13T21:34:07.601Z,99.80
2023-02-13T21:36:36.668Z,99.60
2023-02-13T21:39:08.912Z,99.80
2023-02-13T21:41:38.859Z,99.90
2023-02-13T21:44:06.451Z,99.90
2023-02-13T21:46:34.304Z,99.90
2023-02-13T21:49:07.055Z,99.90
2023-02-13T21:51:36.601Z,99.90
2023-02-13T21:54:05.320Z,99.90
2023-02-13T21:56:36.250Z,99.90
2023-02-13T21:59:04.534Z,99.90
2023-02-13T22:01:46.674Z,99.90
2023-02-13T22:04:14.807Z,99.90
2023-02-13T22:06:42.692Z,99.90
2023-02-13T22:09:13.265Z,99.90
2023-02-13T22:12:06.312Z,99.90
2023-02-13T22:14:33.906Z,99.90
2023-02-13T22:17:01.427Z,99.90
2023-02-13T22:19:28.957Z,99.90
2023-02-13T22:21:56.398Z,99.90
2023-02-13T22:24:24.213Z,99.90
2023-02-13T22:26:51.735Z,99.90
2023-02-13T22:29:21.621Z,99.90
2023-02-13T22:31:49.208Z,99.90
2023-02-13T22:34:17.007Z,99.90
2023-02-13T22:36:44.598Z,99.90
2023-02-13T22:39:12.653Z,99.90
2023-02-13T22:41:41.217Z,99.90
2023-02-13T22:44:08.727Z,99.90
2023-02-13T22:46:36.184Z,99.90
2023-02-13T22:49:04.261Z,99.90
2023-02-13T22:51:34.561Z,99.90
2023-02-13T22:54:02.501Z,99.90
2023-02-13T22:56:31.379Z,99.90
2023-02-13T22:58:59.454Z,99.90
2023-02-13T23:01:28.491Z,99.90
2023-02-13T23:03:57.078Z,99.90
2023-02-13T23:06:25.519Z,99.90
2023-02-13T23:08:53.816Z,99.90
2023-02-13T23:11:42.971Z,99.90
2023-02-13T23:14:11.489Z,99.90
2023-02-13T23:16:58.583Z,99.90
2023-02-13T23:19:27.513Z,99.90
2023-02-13T23:21:55.777Z,99.90
2023-02-13T23:24:23.610Z,99.90
2023-02-13T23:26:51.438Z,99.90
2023-02-13T23:29:19.175Z,99.90
2023-02-13T23:31:46.957Z,99.90
2023-02-13T23:34:14.860Z,99.90
2023-02-13T23:36:42.625Z,99.90
2023-02-13T23:39:10.893Z,99.90
2023-02-13T23:41:38.929Z,99.90
2023-02-13T23:44:06.594Z,99.90
2023-02-13T23:46:34.314Z,99.90
2023-02-13T23:49:03.900Z,99.90
2023-02-13T23:51:32.279Z,99.90
2023-02-13T23:54:00.463Z,99.90
2023-02-13T23:56:28.095Z,99.90
2023-02-13T23:58:56.832Z,99.90
